createdAt,value
2019-01-19T00:02:36.376Z,6.13
2019-01-19T00:05:28.763Z,7.37
2019-01-19T00:08:23.395Z,8.53
2019-01-19T00:11:08.512Z,7.40
2019-01-19T00:13:56.059Z,6.63
2019-01-19T00:16:50.986Z,6.37
2019-01-19T00:19:27.160Z,6.80
2019-01-19T00:22:13.036Z,6.10
2019-01-19T00:24:47.390Z,6.93
2019-01-19T00:27:35.391Z,6.03
2019-01-19T00:30:24.602Z,6.40
2019-01-19T00:33:12.184Z,5.80
2019-01-19T00:35:46.847Z,6.63
2019-01-19T00:38:34.717Z,6.70
2019-01-19T00:41:23.702Z,6.30
2019-01-19T00:44:12.082Z,7.10
2019-01-19T00:47:13.192Z,6.97
2019-01-19T00:49:47.619Z,6.90
2019-01-19T00:52:24.217Z,6.33
2019-01-19T00:55:00.290Z,7.10
2019-01-19T00:58:04.658Z,6.97
2019-01-19T01:00:41.567Z,6.93
2019-01-19T01:03:33.973Z,6.73
2019-01-19T01:06:23.801Z,7.83
2019-01-19T01:09:31.197Z,6.40
2019-01-19T01:12:08.009Z,6.10
2019-01-19T01:14:55.970Z,6.67
2019-01-19T01:17:54.402Z,6.90
2019-01-19T01:20:42.516Z,7.20
2019-01-19T01:23:19.686Z,6.17
2019-01-19T01:26:26.833Z,6.47
2019-01-19T01:29:14.484Z,6.33
2019-01-19T01:31:51.645Z,6.63
2019-01-19T01:34:44.678Z,6.73
2019-01-19T01:37:27.547Z,7.00
2019-01-19T01:40:34.831Z,6.70
2019-01-19T01:43:24.062Z,5.90
2019-01-19T01:46:00.314Z,6.73
2019-01-19T01:48:52.460Z,6.33
2019-01-19T01:51:56.884Z,7.83
2019-01-19T01:54:52.183Z,6.43
2019-01-19T01:57:24.486Z,6.50
2019-01-19T02:00:09.441Z,6.77
2019-01-19T02:02:47.388Z,5.97
2019-01-19T02:05:40.341Z,7.23
2019-01-19T02:08:19.320Z,6.20
2019-01-19T02:11:06.909Z,7.53
2019-01-19T02:14:09.203Z,7.73
2019-01-19T02:17:06.407Z,9.07
2019-01-19T02:19:48.629Z,6.93
2019-01-19T02:22:24.617Z,6.10
2019-01-19T02:25:12.230Z,5.77
2019-01-19T02:28:01.514Z,7.30
2019-01-19T02:30:50.819Z,6.33
2019-01-19T02:33:37.073Z,6.40
2019-01-19T02:36:24.692Z,6.17
2019-01-19T02:39:25.778Z,6.20
2019-01-19T02:42:14.976Z,7.33
2019-01-19T02:44:48.184Z,7.00
2019-01-19T02:47:38.345Z,6.37
2019-01-19T02:50:15.272Z,6.20
2019-01-19T02:52:48.833Z,6.23
2019-01-19T02:55:41.015Z,6.87
2019-01-19T02:58:21.893Z,6.63
2019-01-19T03:01:16.959Z,5.63
2019-01-19T03:04:02.719Z,6.67
2019-01-19T03:06:54.915Z,6.20
2019-01-19T03:09:40.183Z,6.77
2019-01-19T03:12:35.193Z,6.97
2019-01-19T03:15:25.235Z,8.27
2019-01-19T03:18:02.739Z,7.50
2019-01-19T03:20:41.578Z,6.13
2019-01-19T03:23:30.950Z,6.30
2019-01-19T03:26:13.602Z,6.83
2019-01-19T03:29:01.436Z,5.93
2019-01-19T03:31:50.710Z,6.97
2019-01-19T03:34:48.902Z,6.57
2019-01-19T03:37:44.003Z,6.57
2019-01-19T03:40:39.634Z,6.10
2019-01-19T03:43:34.634Z,6.20
2019-01-19T03:46:32.742Z,6.57
2019-01-19T03:49:34.137Z,6.97
2019-01-19T03:52:08.518Z,6.33
2019-01-19T03:54:56.183Z,6.57
2019-01-19T03:57:30.275Z,7.00
2019-01-19T04:00:08.944Z,6.07
2019-01-19T04:02:59.810Z,7.00
2019-01-19T04:05:47.548Z,6.43
2019-01-19T04:08:54.991Z,7.07
2019-01-19T04:11:44.187Z,6.67
2019-01-19T04:14:31.913Z,5.87
2019-01-19T04:17:19.775Z,7.03
2019-01-19T04:19:55.415Z,6.63
2019-01-19T04:22:33.916Z,6.87
2019-01-19T04:25:10.872Z,7.00
2019-01-19T04:27:40.913Z,6.70
2019-01-19T04:30:11.595Z,7.73
2019-01-19T04:32:41.664Z,6.37
2019-01-19T04:35:11.808Z,10.03
2019-01-19T04:37:41.857Z,6.60
2019-01-19T04:40:12.531Z,8.23
2019-01-19T04:42:45.027Z,8.30
2019-01-19T04:45:15.243Z,6.50
2019-01-19T04:47:45.418Z,7.20
2019-01-19T04:50:15.548Z,6.03
2019-01-19T04:52:45.595Z,5.77
2019-01-19T04:55:15.637Z,6.93
2019-01-19T04:57:45.671Z,7.73
2019-01-19T05:00:17.872Z,7.00
2019-01-19T05:02:48.068Z,7.20
2019-01-19T05:05:18.116Z,6.33
2019-01-19T05:07:48.141Z,6.93
2019-01-19T05:10:19.465Z,7.13
2019-01-19T05:12:49.452Z,6.83
2019-01-19T05:15:20.233Z,7.20
2019-01-19T05:17:50.329Z,7.10
2019-01-19T05:20:20.637Z,6.03
2019-01-19T05:22:50.687Z,6.87
2019-01-19T05:25:20.757Z,7.70
2019-01-19T05:27:50.937Z,7.27
2019-01-19T05:30:21.498Z,7.10
2019-01-19T05:32:51.869Z,6.63
2019-01-19T05:35:22.091Z,6.77
2019-01-19T05:37:52.133Z,7.27
2019-01-19T05:40:22.247Z,8.30
2019-01-19T05:42:52.318Z,7.60
2019-01-19T05:45:22.742Z,6.17
2019-01-19T05:47:52.808Z,6.93
2019-01-19T05:50:23.873Z,8.00
2019-01-19T05:52:53.847Z,7.00
2019-01-19T05:55:23.833Z,7.93
2019-01-19T05:57:53.826Z,8.00
2019-01-19T06:00:30.237Z,7.00
2019-01-19T06:03:00.346Z,7.77
2019-01-19T06:05:30.686Z,7.20
2019-01-19T06:08:01.018Z,6.43
2019-01-19T06:10:31.166Z,7.97
2019-01-19T06:13:01.154Z,6.30
2019-01-19T06:15:31.171Z,8.03
2019-01-19T06:18:02.208Z,6.83
2019-01-19T06:20:32.597Z,5.77
2019-01-19T06:23:03.041Z,7.30
2019-01-19T06:25:33.110Z,6.87
2019-01-19T06:28:04.494Z,6.03
2019-01-19T06:30:36.908Z,6.47
2019-01-19T06:33:07.153Z,6.80
2019-01-19T06:35:37.313Z,6.53
2019-01-19T06:38:07.349Z,6.20
2019-01-19T06:40:38.393Z,6.00
2019-01-19T06:43:08.358Z,5.90
2019-01-19T06:45:38.460Z,6.43
2019-01-19T06:48:08.527Z,6.27
2019-01-19T06:50:41.755Z,6.30
2019-01-19T06:53:14.867Z,6.67
2019-01-19T06:55:45.061Z,6.00
2019-01-19T06:58:15.071Z,5.43
2019-01-19T07:00:45.117Z,6.33
2019-01-19T07:03:15.744Z,6.93
2019-01-19T07:05:45.863Z,6.17
2019-01-19T07:08:15.934Z,5.60
2019-01-19T07:10:46.340Z,6.10
2019-01-19T07:13:17.580Z,7.60
2019-01-19T07:15:47.668Z,6.40
2019-01-19T07:18:17.677Z,7.07
2019-01-19T07:20:47.828Z,6.30
2019-01-19T07:23:17.873Z,6.53
2019-01-19T07:25:47.861Z,5.77
2019-01-19T07:28:17.858Z,6.77
2019-01-19T07:30:47.984Z,7.90
2019-01-19T07:33:18.111Z,5.37
2019-01-19T07:35:48.416Z,5.53
2019-01-19T07:38:18.372Z,6.03
2019-01-19T07:40:48.852Z,6.40
2019-01-19T07:43:19.429Z,6.13
2019-01-19T07:45:49.537Z,6.07
2019-01-19T07:48:19.710Z,7.20
2019-01-19T07:50:49.849Z,5.93
2019-01-19T07:53:19.971Z,5.70
2019-01-19T07:55:50.835Z,7.43
2019-01-19T07:58:20.906Z,5.60
2019-01-19T08:00:50.943Z,5.97
2019-01-19T08:03:20.970Z,6.03
2019-01-19T08:05:51.039Z,6.17
2019-01-19T08:08:21.339Z,6.30
2019-01-19T08:10:51.327Z,6.15
2019-01-19T08:13:21.482Z,5.90
2019-01-19T08:15:51.666Z,6.43
2019-01-19T08:18:22.736Z,6.87
2019-01-19T08:20:52.787Z,5.93
2019-01-19T08:23:22.932Z,7.00
2019-01-19T08:25:53.170Z,6.47
2019-01-19T08:28:23.311Z,7.33
2019-01-19T08:30:53.432Z,6.03
2019-01-19T08:33:24.538Z,6.47
2019-01-19T08:35:55.169Z,6.37
2019-01-19T08:38:25.349Z,6.07
2019-01-19T08:40:56.264Z,6.60
2019-01-19T08:43:30.258Z,7.20
2019-01-19T08:46:00.362Z,6.83
2019-01-19T08:48:30.442Z,6.30
2019-01-19T08:51:00.555Z,6.97
2019-01-19T08:53:30.608Z,6.73
2019-01-19T08:56:00.721Z,6.93
2019-01-19T08:58:31.345Z,7.10
2019-01-19T09:01:01.598Z,5.83
2019-01-19T09:03:31.899Z,7.03
2019-01-19T09:06:01.966Z,5.93
2019-01-19T09:08:32.051Z,6.00
2019-01-19T09:11:02.082Z,5.53
2019-01-19T09:13:32.155Z,6.47
2019-01-19T09:16:13.072Z,6.97
2019-01-19T09:18:43.725Z,6.23
2019-01-19T09:21:15.921Z,6.10
2019-01-19T09:23:55.895Z,6.33
2019-01-19T09:26:26.152Z,5.97
2019-01-19T09:28:56.457Z,6.27
2019-01-19T09:31:26.823Z,7.43
2019-01-19T09:33:57.202Z,7.20
2019-01-19T09:36:27.317Z,6.57
2019-01-19T09:38:57.539Z,6.53
2019-01-19T09:41:27.760Z,8.03
2019-01-19T09:43:57.847Z,7.00
2019-01-19T09:46:27.914Z,7.10
2019-01-19T09:48:58.496Z,7.00
2019-01-19T09:51:29.993Z,6.57
2019-01-19T09:54:00.045Z,6.37
2019-01-19T09:56:30.111Z,6.93
2019-01-19T09:59:00.189Z,7.20
2019-01-19T10:01:30.172Z,5.90
2019-01-19T10:04:00.170Z,5.83
2019-01-19T10:06:30.243Z,6.40
2019-01-19T10:09:00.459Z,6.80
2019-01-19T10:11:30.688Z,6.27
2019-01-19T10:14:00.798Z,6.83
2019-01-19T10:16:30.901Z,5.97
2019-01-19T10:19:00.927Z,5.80
2019-01-19T10:21:31.307Z,6.67
2019-01-19T10:24:01.587Z,7.23
2019-01-19T10:26:31.730Z,5.73
2019-01-19T10:29:02.005Z,6.43
2019-01-19T10:31:32.153Z,6.47
2019-01-19T10:34:02.321Z,6.30
2019-01-19T10:36:32.435Z,5.70
2019-01-19T10:39:02.538Z,5.77
2019-01-19T10:41:32.649Z,6.53
2019-01-19T10:44:02.711Z,6.33
2019-01-19T10:46:34.495Z,5.87
2019-01-19T10:49:05.008Z,6.40
2019-01-19T10:51:35.063Z,5.33
2019-01-19T10:54:05.206Z,6.00
2019-01-19T10:56:36.898Z,6.30
2019-01-19T10:59:06.935Z,6.43
2019-01-19T11:01:36.985Z,5.97
2019-01-19T11:04:08.746Z,5.73
2019-01-19T11:06:39.308Z,5.80
2019-01-19T11:09:09.378Z,6.03
2019-01-19T11:11:39.920Z,5.77
2019-01-19T11:14:10.443Z,5.20
2019-01-19T11:16:41.421Z,6.03
2019-01-19T11:19:11.483Z,5.67
2019-01-19T11:21:41.735Z,5.67
2019-01-19T11:24:11.965Z,5.63
2019-01-19T11:26:43.380Z,5.63
2019-01-19T11:29:13.506Z,5.57
2019-01-19T11:31:43.700Z,5.10
2019-01-19T11:34:13.740Z,5.53
2019-01-19T11:36:43.922Z,5.27
2019-01-19T11:39:13.992Z,5.60
2019-01-19T11:41:44.145Z,5.70
2019-01-19T11:44:14.214Z,6.30
2019-01-19T11:46:44.343Z,5.53
2019-01-19T11:49:14.353Z,5.27
2019-01-19T11:51:44.521Z,4.67
2019-01-19T11:54:14.934Z,5.30
2019-01-19T11:56:45.158Z,5.60
2019-01-19T11:59:17.685Z,5.28
2019-01-19T12:01:47.941Z,5.80
2019-01-19T12:04:19.601Z,4.50
2019-01-19T12:06:52.013Z,5.00
2019-01-19T12:09:22.224Z,5.23
2019-01-19T12:11:52.323Z,4.57
2019-01-19T12:14:22.361Z,5.23
2019-01-19T12:16:53.074Z,4.93
2019-01-19T12:19:23.142Z,4.50
2019-01-19T12:21:53.292Z,5.00
2019-01-19T12:24:23.368Z,5.47
2019-01-19T12:26:53.573Z,5.00
2019-01-19T12:29:24.174Z,4.93
2019-01-19T12:31:54.453Z,4.87
2019-01-19T12:34:24.622Z,5.00
2019-01-19T12:36:54.587Z,4.47
2019-01-19T12:39:24.616Z,4.20
2019-01-19T12:41:55.070Z,5.03
2019-01-19T12:44:25.638Z,4.53
2019-01-19T12:46:57.018Z,4.70
2019-01-19T12:49:27.254Z,4.20
2019-01-19T12:51:59.807Z,4.50
2019-01-19T12:54:29.854Z,4.63
2019-01-19T12:56:59.973Z,4.77
2019-01-19T12:59:29.967Z,4.83
2019-01-19T13:01:59.985Z,4.13
2019-01-19T13:04:30.159Z,4.30
2019-01-19T13:07:05.656Z,4.70
2019-01-19T13:09:41.284Z,4.07
2019-01-19T13:12:30.705Z,4.17
2019-01-19T13:15:13.489Z,3.93
2019-01-19T13:18:08.670Z,4.00
2019-01-19T13:21:11.946Z,4.90
2019-01-19T13:24:04.420Z,3.97
2019-01-19T13:26:49.790Z,4.07
2019-01-19T13:29:57.075Z,4.03
2019-01-19T13:32:46.351Z,4.03
2019-01-19T13:35:34.655Z,3.60
2019-01-19T13:38:26.564Z,4.27
2019-01-19T13:41:15.818Z,3.90
2019-01-19T13:44:11.088Z,4.20
2019-01-19T13:46:59.111Z,4.00
2019-01-19T13:49:44.714Z,3.40
2019-01-19T13:52:28.626Z,3.60
2019-01-19T13:55:16.795Z,3.30
2019-01-19T13:58:11.876Z,4.00
2019-01-19T14:00:49.737Z,4.53
2019-01-19T14:03:29.893Z,4.07
2019-01-19T14:06:19.002Z,3.90
2019-01-19T14:09:14.407Z,3.97
2019-01-19T14:12:10.058Z,3.23
2019-01-19T14:15:02.426Z,3.97
2019-01-19T14:17:44.798Z,3.50
2019-01-19T14:20:33.069Z,3.97
2019-01-19T14:23:12.568Z,3.83
2019-01-19T14:25:52.973Z,3.60
2019-01-19T14:28:32.223Z,4.10
2019-01-19T14:31:15.136Z,5.23
2019-01-19T14:33:48.226Z,6.30
2019-01-19T14:36:43.946Z,4.93
2019-01-19T14:39:31.922Z,4.00
2019-01-19T14:42:24.712Z,4.07
2019-01-19T14:45:08.219Z,4.17
2019-01-19T14:48:00.362Z,4.40
2019-01-19T14:50:38.939Z,3.47
2019-01-19T14:53:30.477Z,3.83
2019-01-19T14:56:21.284Z,3.80
2019-01-19T14:58:59.125Z,3.40
2019-01-19T15:01:43.909Z,3.90
2019-01-19T15:04:48.332Z,4.03
2019-01-19T15:07:35.102Z,3.90
2019-01-19T15:10:24.612Z,3.67
2019-01-19T15:13:25.992Z,3.57
2019-01-19T15:16:17.484Z,3.80
2019-01-19T15:18:53.643Z,4.50
2019-01-19T15:21:30.831Z,4.87
2019-01-19T15:24:20.082Z,4.03
2019-01-19T15:26:57.044Z,4.17
2019-01-19T15:29:52.334Z,4.57
2019-01-19T15:32:53.718Z,4.00
2019-01-19T15:35:26.950Z,4.17
2019-01-19T15:38:15.797Z,3.53
2019-01-19T15:41:05.167Z,4.10
2019-01-19T15:43:53.407Z,3.43
2019-01-19T15:46:54.943Z,4.00
2019-01-19T15:49:36.183Z,3.93
2019-01-19T15:52:21.676Z,3.33
2019-01-19T15:55:09.806Z,3.93
2019-01-19T15:57:59.348Z,3.70
2019-01-19T16:00:47.639Z,3.77
2019-01-19T16:03:28.422Z,4.03
2019-01-19T16:06:27.762Z,4.00
2019-01-19T16:09:20.248Z,4.27
2019-01-19T16:12:05.553Z,3.93
2019-01-19T16:14:55.175Z,5.53
2019-01-19T16:17:37.912Z,4.60
2019-01-19T16:20:14.128Z,4.43
2019-01-19T16:22:55.613Z,3.87
2019-01-19T16:25:44.061Z,4.20
2019-01-19T16:28:29.708Z,4.00
2019-01-19T16:31:06.617Z,8.43
2019-01-19T16:33:43.722Z,3.80
2019-01-19T16:36:26.453Z,4.43
2019-01-19T16:39:09.047Z,4.00
2019-01-19T16:41:49.917Z,4.30
2019-01-19T16:44:35.787Z,4.67
2019-01-19T16:47:25.190Z,4.17
2019-01-19T16:50:00.433Z,5.13
2019-01-19T16:52:43.273Z,5.57
2019-01-19T16:55:19.411Z,4.57
2019-01-19T16:58:08.419Z,3.80
2019-01-19T17:00:56.026Z,5.00
2019-01-19T17:03:39.754Z,4.07
2019-01-19T17:06:16.512Z,3.80
2019-01-19T17:08:55.307Z,4.53
2019-01-19T17:11:44.595Z,5.00
2019-01-19T17:14:33.083Z,5.30
2019-01-19T17:17:20.962Z,4.73
2019-01-19T17:20:08.819Z,6.20
2019-01-19T17:22:45.404Z,4.77
2019-01-19T17:25:40.410Z,4.00
2019-01-19T17:28:29.646Z,4.47
2019-01-19T17:31:19.049Z,4.70
2019-01-19T17:33:52.822Z,4.63
2019-01-19T17:36:29.379Z,4.57
2019-01-19T17:39:12.847Z,4.77
2019-01-19T17:42:14.234Z,5.50
2019-01-19T17:45:12.438Z,6.40
2019-01-19T17:48:13.817Z,4.97
2019-01-19T17:50:54.335Z,4.33
2019-01-19T17:53:42.069Z,4.60
2019-01-19T17:56:30.630Z,5.37
2019-01-19T17:59:04.957Z,5.10
2019-01-19T18:01:48.294Z,5.07
2019-01-19T18:04:37.479Z,6.17
2019-01-19T18:07:26.404Z,4.83
2019-01-19T18:10:16.254Z,4.43
2019-01-19T18:12:54.485Z,5.30
2019-01-19T18:15:46.713Z,4.17
2019-01-19T18:18:23.066Z,5.30
2019-01-19T18:21:10.779Z,4.27
2019-01-19T18:23:46.003Z,4.50
2019-01-19T18:26:35.316Z,5.20
2019-01-19T18:29:10.154Z,4.23
2019-01-19T18:31:50.878Z,5.10
2019-01-19T18:34:33.642Z,5.33
2019-01-19T18:37:12.313Z,5.37
2019-01-19T18:39:54.905Z,4.73
2019-01-19T18:42:51.545Z,4.17
2019-01-19T18:45:35.056Z,4.43
2019-01-19T18:48:22.974Z,4.70
2019-01-19T18:51:16.490Z,5.20
2019-01-19T18:54:14.864Z,4.73
2019-01-19T18:56:56.061Z,5.57
2019-01-19T18:59:32.959Z,4.53
2019-01-19T19:02:24.338Z,4.50
2019-01-19T19:05:05.934Z,4.87
2019-01-19T19:07:43.150Z,4.87
2019-01-19T19:10:21.918Z,5.37
2019-01-19T19:13:17.041Z,6.47
2019-01-19T19:16:12.605Z,5.40
2019-01-19T19:19:01.891Z,4.53
2019-01-19T19:21:36.421Z,6.20
2019-01-19T19:24:22.585Z,5.63
2019-01-19T19:27:13.441Z,4.97
2019-01-19T19:30:08.498Z,5.30
2019-01-19T19:32:57.757Z,4.87
2019-01-19T19:35:33.379Z,5.43
2019-01-19T19:38:21.929Z,4.30
2019-01-19T19:41:15.498Z,3.90
2019-01-19T19:44:10.906Z,4.60
2019-01-19T19:47:00.138Z,5.10
2019-01-19T19:49:55.355Z,4.30
2019-01-19T19:52:27.975Z,4.60
2019-01-19T19:54:56.526Z,4.50
2019-01-19T19:57:26.601Z,4.93
2019-01-19T19:59:57.253Z,3.97
2019-01-19T20:02:27.273Z,4.57
2019-01-19T20:04:57.404Z,4.67
2019-01-19T20:07:27.545Z,4.53
2019-01-19T20:09:57.856Z,3.90
2019-01-19T20:12:27.932Z,4.17
2019-01-19T20:14:58.184Z,4.07
2019-01-19T20:17:29.605Z,3.97
2019-01-19T20:19:59.727Z,4.47
2019-01-19T20:22:31.586Z,3.93
2019-01-19T20:25:01.839Z,3.83
2019-01-19T20:27:32.029Z,3.63
2019-01-19T20:30:02.207Z,4.10
2019-01-19T20:32:32.394Z,4.27
2019-01-19T20:35:02.560Z,4.23
2019-01-19T20:37:32.677Z,3.50
2019-01-19T20:40:03.269Z,3.97
2019-01-19T20:42:33.379Z,4.10
2019-01-19T20:45:05.500Z,3.60
2019-01-19T20:47:35.699Z,3.40
2019-01-19T20:50:07.039Z,3.53
2019-01-19T20:52:37.236Z,4.00
2019-01-19T20:55:07.551Z,3.33
2019-01-19T20:57:37.843Z,3.43
2019-01-19T21:00:10.321Z,3.83
2019-01-19T21:02:40.565Z,3.37
2019-01-19T21:05:11.217Z,3.67
2019-01-19T21:07:41.328Z,3.50
2019-01-19T21:10:11.429Z,4.67
2019-01-19T21:12:41.506Z,3.43
2019-01-19T21:15:12.117Z,3.70
2019-01-19T21:17:42.623Z,3.53
2019-01-19T21:20:13.553Z,3.57
2019-01-19T21:22:43.680Z,3.40
2019-01-19T21:25:13.786Z,3.77
2019-01-19T21:27:43.811Z,4.27
2019-01-19T21:30:14.443Z,3.03
2019-01-19T21:32:44.567Z,3.97
2019-01-19T21:35:14.613Z,4.10
2019-01-19T21:37:44.612Z,3.70
2019-01-19T21:40:14.799Z,4.53
2019-01-19T21:42:44.854Z,3.43
2019-01-19T21:45:16.284Z,3.47
2019-01-19T21:47:46.396Z,3.93
2019-01-19T21:50:16.373Z,3.00
2019-01-19T21:52:46.577Z,4.40
2019-01-19T21:55:16.628Z,3.23
2019-01-19T21:57:46.632Z,3.60
2019-01-19T22:00:17.184Z,3.43
2019-01-19T22:02:47.249Z,3.90
2019-01-19T22:05:17.654Z,3.47
2019-01-19T22:07:47.891Z,3.73
2019-01-19T22:10:18.247Z,3.80
2019-01-19T22:12:48.327Z,3.90
2019-01-19T22:15:18.430Z,3.50
2019-01-19T22:17:48.557Z,4.03
2019-01-19T22:20:18.985Z,4.03
2019-01-19T22:22:49.042Z,4.03
2019-01-19T22:25:19.152Z,4.03
2019-01-19T22:27:49.542Z,4.30
2019-01-19T22:30:23.400Z,3.87
2019-01-19T22:32:55.074Z,4.00
2019-01-19T22:35:27.728Z,3.73
2019-01-19T22:37:57.888Z,3.73
2019-01-19T22:40:27.992Z,4.13
2019-01-19T22:42:59.211Z,3.73
2019-01-19T22:45:29.382Z,3.97
2019-01-19T22:47:59.373Z,5.30
2019-01-19T22:50:29.438Z,3.60
2019-01-19T22:53:00.451Z,4.77
2019-01-19T22:55:30.781Z,4.63
2019-01-19T22:58:00.873Z,3.97
2019-01-19T23:00:56.941Z,4.57
2019-01-19T23:03:27.792Z,4.00
2019-01-19T23:05:57.925Z,3.57
2019-01-19T23:08:28.094Z,3.23
2019-01-19T23:11:01.219Z,3.50
2019-01-19T23:13:30.042Z,4.53
2019-01-19T23:16:00.113Z,3.77
2019-01-19T23:18:30.179Z,3.53
2019-01-19T23:21:00.192Z,4.23
2019-01-19T23:23:30.257Z,4.17
2019-01-19T23:26:01.777Z,3.70
2019-01-19T23:28:31.977Z,4.30
2019-01-19T23:31:02.816Z,3.40
2019-01-19T23:33:34.023Z,4.27
2019-01-19T23:36:04.841Z,3.50
2019-01-19T23:38:34.863Z,3.83
2019-01-19T23:41:09.209Z,3.93
2019-01-19T23:43:36.618Z,3.83
2019-01-19T23:46:06.709Z,3.77
2019-01-19T23:48:37.742Z,3.53
2019-01-19T23:51:07.818Z,4.60
2019-01-19T23:53:38.858Z,3.83
2019-01-19T23:56:08.941Z,3.43
2019-01-19T23:58:39.009Z,3.40
